sensor_id;sensor_type;location;lat;lon;timestamp;pressure;altitude;pressure_sealevel;temperature;humidity
57024;BME280;42916;54.346;18.562;2023-03-01T00:00:08;101643.23;;;0.31;93.98
57024;BME280;42916;54.346;18.562;2023-03-01T00:02:58;101651.66;;;0.32;94.03
57024;BME280;42916;54.346;18.562;2023-03-01T00:05:25;101651.93;;;0.33;94.27
57024;BME280;42916;54.346;18.562;2023-03-01T00:07:53;101650.89;;;0.33;94.49
57024;BME280;42916;54.346;18.562;2023-03-01T00:10:20;101648.89;;;0.33;94.79
57024;BME280;42916;54.346;18.562;2023-03-01T00:12:47;101642.57;;;0.34;94.70
57024;BME280;42916;54.346;18.562;2023-03-01T00:15:14;101631.38;;;0.35;94.66
57024;BME280;42916;54.346;18.562;2023-03-01T00:17:41;101625.02;;;0.36;94.92
57024;BME280;42916;54.346;18.562;2023-03-01T00:20:08;101619.98;;;0.39;94.97
57024;BME280;42916;54.346;18.562;2023-03-01T00:22:37;101622.70;;;0.40;95.64
57024;BME280;42916;54.346;18.562;2023-03-01T00:25:04;101619.63;;;0.41;95.09
57024;BME280;42916;54.346;18.562;2023-03-01T00:27:31;101620.22;;;0.40;94.79
57024;BME280;42916;54.346;18.562;2023-03-01T00:29:58;101619.55;;;0.41;95.06
57024;BME280;42916;54.346;18.562;2023-03-01T00:32:26;101619.91;;;0.43;95.29
57024;BME280;42916;54.346;18.562;2023-03-01T00:34:53;101617.95;;;0.45;95.27
57024;BME280;42916;54.346;18.562;2023-03-01T00:37:24;101613.96;;;0.47;95.47
57024;BME280;42916;54.346;18.562;2023-03-01T00:39:51;101614.27;;;0.47;95.13
57024;BME280;42916;54.346;18.562;2023-03-01T00:42:18;101611.52;;;0.46;95.13
57024;BME280;42916;54.346;18.562;2023-03-01T00:44:45;101610.46;;;0.46;95.28
57024;BME280;42916;54.346;18.562;2023-03-01T00:47:12;101605.14;;;0.46;95.13
57024;BME280;42916;54.346;18.562;2023-03-01T00:49:40;101604.56;;;0.46;95.22
57024;BME280;42916;54.346;18.562;2023-03-01T00:52:07;101604.95;;;0.48;95.73
57024;BME280;42916;54.346;18.562;2023-03-01T00:54:34;101596.58;;;0.49;96.43
57024;BME280;42916;54.346;18.562;2023-03-01T00:57:01;101594.38;;;0.50;96.24
57024;BME280;42916;54.346;18.562;2023-03-01T00:59:28;101596.28;;;0.49;96.59
57024;BME280;42916;54.346;18.562;2023-03-01T01:01:55;101607.20;;;0.48;96.99
57024;BME280;42916;54.346;18.562;2023-03-01T01:04:22;101609.20;;;0.51;97.40
57024;BME280;42916;54.346;18.562;2023-03-01T01:06:49;101611.83;;;0.53;97.31
57024;BME280;42916;54.346;18.562;2023-03-01T01:09:17;101609.13;;;0.55;97.42
57024;BME280;42916;54.346;18.562;2023-03-01T01:11:46;101612.14;;;0.56;97.23
57024;BME280;42916;54.346;18.562;2023-03-01T01:14:14;101617.30;;;0.56;97.57
57024;BME280;42916;54.346;18.562;2023-03-01T01:16:41;101611.65;;;0.55;97.41
57024;BME280;42916;54.346;18.562;2023-03-01T01:19:10;101611.84;;;0.55;97.37
57024;BME280;42916;54.346;18.562;2023-03-01T01:21:37;101601.20;;;0.56;97.86
57024;BME280;42916;54.346;18.562;2023-03-01T01:24:05;101604.35;;;0.57;97.70
57024;BME280;42916;54.346;18.562;2023-03-01T01:26:34;101593.88;;;0.58;97.63
57024;BME280;42916;54.346;18.562;2023-03-01T01:29:03;101601.58;;;0.58;98.22
57024;BME280;42916;54.346;18.562;2023-03-01T01:31:31;101604.86;;;0.57;97.95
57024;BME280;42916;54.346;18.562;2023-03-01T01:33:59;101609.70;;;0.55;98.38
57024;BME280;42916;54.346;18.562;2023-03-01T01:36:27;101605.35;;;0.56;98.42
57024;BME280;42916;54.346;18.562;2023-03-01T01:38:55;101598.81;;;0.55;98.24
57024;BME280;42916;54.346;18.562;2023-03-01T01:41:23;101598.09;;;0.55;98.26
57024;BME280;42916;54.346;18.562;2023-03-01T01:49:35;101579.66;;;0.50;99.68
57024;BME280;42916;54.346;18.562;2023-03-01T01:52:22;101575.80;;;0.50;99.12
57024;BME280;42916;54.346;18.562;2023-03-01T01:54:57;101574.35;;;0.50;99.77
57024;BME280;42916;54.346;18.562;2023-03-01T01:57:49;101578.25;;;0.50;99.92
57024;BME280;42916;54.346;18.562;2023-03-01T02:00:21;101567.10;;;0.49;99.89
57024;BME280;42916;54.346;18.562;2023-03-01T02:02:50;101564.15;;;0.49;100.00
57024;BME280;42916;54.346;18.562;2023-03-01T02:05:25;101566.58;;;0.46;99.95
57024;BME280;42916;54.346;18.562;2023-03-01T02:07:53;101568.98;;;0.43;99.99
57024;BME280;42916;54.346;18.562;2023-03-01T02:10:23;101563.92;;;0.43;100.00
57024;BME280;42916;54.346;18.562;2023-03-01T02:12:51;101566.98;;;0.42;100.00
57024;BME280;42916;54.346;18.562;2023-03-01T02:15:19;101565.65;;;0.43;100.00
57024;BME280;42916;54.346;18.562;2023-03-01T02:17:47;101559.13;;;0.42;100.00
57024;BME280;42916;54.346;18.562;2023-03-01T02:20:30;101554.81;;;0.41;100.00
57024;BME280;42916;54.346;18.562;2023-03-01T02:23:02;101552.79;;;0.38;100.00
57024;BME280;42916;54.346;18.562;2023-03-01T02:25:39;101556.96;;;0.37;100.00
57024;BME280;42916;54.346;18.562;2023-03-01T02:30:49;101556.10;;;0.37;100.00
57024;BME280;42916;54.346;18.562;2023-03-01T02:33:38;101562.06;;;0.36;100.00
57024;BME280;42916;54.346;18.562;2023-03-01T02:36:11;101558.74;;;0.37;100.00
57024;BME280;42916;54.346;18.562;2023-03-01T02:38:41;101554.63;;;0.37;100.00
57024;BME280;42916;54.346;18.562;2023-03-01T02:41:11;101547.57;;;0.36;100.00
57024;BME280;42916;54.346;18.562;2023-03-01T02:43:39;101543.98;;;0.35;100.00
57024;BME280;42916;54.346;18.562;2023-03-01T02:46:13;101545.19;;;0.35;100.00
57024;BME280;42916;54.346;18.562;2023-03-01T02:48:43;101546.76;;;0.35;100.00
57024;BME280;42916;54.346;18.562;2023-03-01T02:51:42;101550.61;;;0.36;100.00
57024;BME280;42916;54.346;18.562;2023-03-01T02:54:27;101542.91;;;0.36;100.00
57024;BME280;42916;54.346;18.562;2023-03-01T02:56:55;101538.47;;;0.36;100.00
57024;BME280;42916;54.346;18.562;2023-03-01T02:59:26;101541.88;;;0.34;100.00
57024;BME280;42916;54.346;18.562;2023-03-01T03:01:55;101538.74;;;0.34;100.00
57024;BME280;42916;54.346;18.562;2023-03-01T03:04:23;101535.30;;;0.34;100.00
57024;BME280;42916;54.346;18.562;2023-03-01T03:06:52;101529.02;;;0.34;100.00
57024;BME280;42916;54.346;18.562;2023-03-01T03:09:20;101523.77;;;0.35;100.00
57024;BME280;42916;54.346;18.562;2023-03-01T03:11:47;101526.45;;;0.35;100.00
57024;BME280;42916;54.346;18.562;2023-03-01T03:14:16;101526.16;;;0.36;100.00
57024;BME280;42916;54.346;18.562;2023-03-01T03:16:49;101519.83;;;0.37;100.00
57024;BME280;42916;54.346;18.562;2023-03-01T03:19:17;101517.73;;;0.37;100.00
57024;BME280;42916;54.346;18.562;2023-03-01T03:21:45;101515.62;;;0.36;100.00
57024;BME280;42916;54.346;18.562;2023-03-01T03:24:12;101519.96;;;0.37;100.00
57024;BME280;42916;54.346;18.562;2023-03-01T03:26:39;101517.26;;;0.40;100.00
57024;BME280;42916;54.346;18.562;2023-03-01T03:29:06;101515.40;;;0.40;100.00
57024;BME280;42916;54.346;18.562;2023-03-01T03:31:34;101511.16;;;0.42;100.00
57024;BME280;42916;54.346;18.562;2023-03-01T03:34:01;101507.17;;;0.44;100.00
57024;BME280;42916;54.346;18.562;2023-03-01T03:36:28;101504.23;;;0.45;100.00
57024;BME280;42916;54.346;18.562;2023-03-01T03:38:55;101501.73;;;0.45;100.00
57024;BME280;42916;54.346;18.562;2023-03-01T03:41:21;101499.22;;;0.45;100.00
57024;BME280;42916;54.346;18.562;2023-03-01T03:43:48;101497.06;;;0.43;100.00
57024;BME280;42916;54.346;18.562;2023-03-01T03:46:15;101494.40;;;0.42;100.00
57024;BME280;42916;54.346;18.562;2023-03-01T03:48:44;101491.30;;;0.41;100.00
57024;BME280;42916;54.346;18.562;2023-03-01T03:51:15;101491.36;;;0.42;100.00
57024;BME280;42916;54.346;18.562;2023-03-01T03:53:42;101496.09;;;0.41;100.00
57024;BME280;42916;54.346;18.562;2023-03-01T03:56:10;101495.62;;;0.40;100.00
57024;BME280;42916;54.346;18.562;2023-03-01T03:58:37;101487.42;;;0.40;100.00
57024;BME280;42916;54.346;18.562;2023-03-01T04:01:06;101490.62;;;0.40;100.00
57024;BME280;42916;54.346;18.562;2023-03-01T04:03:34;101485.84;;;0.40;100.00
57024;BME280;42916;54.346;18.562;2023-03-01T04:06:02;101487.73;;;0.39;100.00
57024;BME280;42916;54.346;18.562;2023-03-01T04:08:30;101482.38;;;0.37;100.00
57024;BME280;42916;54.346;18.562;2023-03-01T04:11:03;101479.28;;;0.36;100.00
57024;BME280;42916;54.346;18.562;2023-03-01T04:13:53;101477.59;;;0.35;100.00
57024;BME280;42916;54.346;18.562;2023-03-01T04:16:22;101477.41;;;0.33;100.00
57024;BME280;42916;54.346;18.562;2023-03-01T04:18:49;101477.29;;;0.31;100.00
57024;BME280;42916;54.346;18.562;2023-03-01T04:21:16;101482.61;;;0.31;100.00
57024;BME280;42916;54.346;18.562;2023-03-01T04:23:43;101481.44;;;0.30;100.00
57024;BME280;42916;54.346;18.562;2023-03-01T04:26:10;101483.60;;;0.30;100.00
57024;BME280;42916;54.346;18.562;2023-03-01T04:28:39;101474.06;;;0.29;100.00
57024;BME280;42916;54.346;18.562;2023-03-01T04:31:15;101477.28;;;0.28;100.00
57024;BME280;42916;54.346;18.562;2023-03-01T04:33:52;101474.98;;;0.26;100.00
57024;BME280;42916;54.346;18.562;2023-03-01T04:36:23;101478.32;;;0.24;100.00
57024;BME280;42916;54.346;18.562;2023-03-01T04:38:50;101471.63;;;0.24;100.00
57024;BME280;42916;54.346;18.562;2023-03-01T04:41:20;101467.17;;;0.22;100.00
57024;BME280;42916;54.346;18.562;2023-03-01T04:43:48;101468.80;;;0.22;100.00
57024;BME280;42916;54.346;18.562;2023-03-01T04:46:17;101471.98;;;0.22;100.00
57024;BME280;42916;54.346;18.562;2023-03-01T04:48:45;101472.61;;;0.21;100.00
57024;BME280;42916;54.346;18.562;2023-03-01T04:51:14;101483.48;;;0.21;100.00
57024;BME280;42916;54.346;18.562;2023-03-01T04:53:42;101476.94;;;0.21;100.00
57024;BME280;42916;54.346;18.562;2023-03-01T04:56:12;101474.41;;;0.19;100.00
57024;BME280;42916;54.346;18.562;2023-03-01T04:58:42;101474.17;;;0.18;100.00
57024;BME280;42916;54.346;18.562;2023-03-01T05:01:15;101471.84;;;0.18;100.00
57024;BME280;42916;54.346;18.562;2023-03-01T05:03:47;101472.14;;;0.19;100.00
57024;BME280;42916;54.346;18.562;2023-03-01T05:06:15;101465.02;;;0.19;100.00
57024;BME280;42916;54.346;18.562;2023-03-01T05:08:44;101461.38;;;0.20;100.00
57024;BME280;42916;54.346;18.562;2023-03-01T05:11:18;101467.66;;;0.19;100.00
57024;BME280;42916;54.346;18.562;2023-03-01T05:13:45;101470.46;;;0.18;100.00
57024;BME280;42916;54.346;18.562;2023-03-01T05:16:12;101472.80;;;0.16;100.00
57024;BME280;42916;54.346;18.562;2023-03-01T05:18:43;101470.92;;;0.15;100.00
57024;BME280;42916;54.346;18.562;2023-03-01T05:21:12;101471.86;;;0.15;100.00
57024;BME280;42916;54.346;18.562;2023-03-01T05:23:39;101474.70;;;0.15;100.00
57024;BME280;42916;54.346;18.562;2023-03-01T05:26:07;101471.18;;;0.14;100.00
57024;BME280;42916;54.346;18.562;2023-03-01T05:28:34;101473.10;;;0.15;100.00
57024;BME280;42916;54.346;18.562;2023-03-01T05:31:01;101479.25;;;0.15;100.00
57024;BME280;42916;54.346;18.562;2023-03-01T05:33:28;101463.92;;;0.15;100.00
57024;BME280;42916;54.346;18.562;2023-03-01T05:35:59;101462.63;;;0.14;100.00
57024;BME280;42916;54.346;18.562;2023-03-01T05:38:26;101472.29;;;0.14;100.00
57024;BME280;42916;54.346;18.562;2023-03-01T05:40:53;101473.19;;;0.14;100.00
57024;BME280;42916;54.346;18.562;2023-03-01T05:43:21;101473.20;;;0.14;100.00
57024;BME280;42916;54.346;18.562;2023-03-01T05:45:48;101471.15;;;0.15;100.00
57024;BME280;42916;54.346;18.562;2023-03-01T05:48:15;101471.36;;;0.14;100.00
57024;BME280;42916;54.346;18.562;2023-03-01T05:50:44;101471.85;;;0.15;100.00
57024;BME280;42916;54.346;18.562;2023-03-01T05:53:12;101465.80;;;0.15;100.00
57024;BME280;42916;54.346;18.562;2023-03-01T05:55:40;101466.88;;;0.13;100.00
57024;BME280;42916;54.346;18.562;2023-03-01T05:58:11;101465.49;;;0.11;100.00
57024;BME280;42916;54.346;18.562;2023-03-01T06:00:38;101463.09;;;0.13;100.00
57024;BME280;42916;54.346;18.562;2023-03-01T06:03:05;101463.39;;;0.15;100.00
57024;BME280;42916;54.346;18.562;2023-03-01T06:05:32;101458.23;;;0.17;100.00
57024;BME280;42916;54.346;18.562;2023-03-01T06:08:00;101464.61;;;0.17;100.00
57024;BME280;42916;54.346;18.562;2023-03-01T06:10:28;101470.14;;;0.17;100.00
57024;BME280;42916;54.346;18.562;2023-03-01T06:12:55;101475.13;;;0.17;100.00
57024;BME280;42916;54.346;18.562;2023-03-01T06:15:23;101481.93;;;0.19;100.00
57024;BME280;42916;54.346;18.562;2023-03-01T06:17:50;101483.52;;;0.19;100.00
57024;BME280;42916;54.346;18.562;2023-03-01T06:20:20;101482.48;;;0.21;100.00
57024;BME280;42916;54.346;18.562;2023-03-01T06:22:48;101482.73;;;0.22;100.00
57024;BME280;42916;54.346;18.562;2023-03-01T06:25:18;101479.05;;;0.24;100.00
57024;BME280;42916;54.346;18.562;2023-03-01T06:27:46;101480.98;;;0.27;100.00
57024;BME280;42916;54.346;18.562;2023-03-01T06:30:16;101487.54;;;0.29;100.00
57024;BME280;42916;54.346;18.562;2023-03-01T06:32:43;101488.46;;;0.31;100.00
57024;BME280;42916;54.346;18.562;2023-03-01T06:35:18;101487.63;;;0.34;100.00
57024;BME280;42916;54.346;18.562;2023-03-01T06:37:48;101485.73;;;0.37;100.00
57024;BME280;42916;54.346;18.562;2023-03-01T06:40:15;101489.47;;;0.43;100.00
57024;BME280;42916;54.346;18.562;2023-03-01T06:42:47;101488.16;;;0.46;100.00
57024;BME280;42916;54.346;18.562;2023-03-01T06:45:18;101495.99;;;0.52;100.00
57024;BME280;42916;54.346;18.562;2023-03-01T06:47:46;101508.14;;;0.53;100.00
57024;BME280;42916;54.346;18.562;2023-03-01T06:50:14;101507.98;;;0.52;100.00
57024;BME280;42916;54.346;18.562;2023-03-01T06:52:41;101508.52;;;0.47;100.00
57024;BME280;42916;54.346;18.562;2023-03-01T06:55:11;101503.48;;;0.42;100.00
57024;BME280;42916;54.346;18.562;2023-03-01T06:57:38;101504.18;;;0.42;100.00
57024;BME280;42916;54.346;18.562;2023-03-01T07:00:06;101503.86;;;0.43;100.00
57024;BME280;42916;54.346;18.562;2023-03-01T07:05:11;101506.55;;;0.45;100.00
57024;BME280;42916;54.346;18.562;2023-03-01T07:07:38;101502.43;;;0.47;100.00
57024;BME280;42916;54.346;18.562;2023-03-01T07:10:05;101500.92;;;0.46;100.00
57024;BME280;42916;54.346;18.562;2023-03-01T07:12:32;101498.73;;;0.48;100.00
57024;BME280;42916;54.346;18.562;2023-03-01T07:14:59;101494.92;;;0.51;100.00
57024;BME280;42916;54.346;18.562;2023-03-01T07:17:26;101492.70;;;0.56;100.00
57024;BME280;42916;54.346;18.562;2023-03-01T07:19:57;101506.23;;;0.60;100.00
57024;BME280;42916;54.346;18.562;2023-03-01T07:22:24;101508.48;;;0.62;100.00
57024;BME280;42916;54.346;18.562;2023-03-01T07:24:51;101510.29;;;0.65;100.00
57024;BME280;42916;54.346;18.562;2023-03-01T07:27:18;101508.99;;;0.65;100.00
57024;BME280;42916;54.346;18.562;2023-03-01T07:29:48;101512.39;;;0.70;100.00
57024;BME280;42916;54.346;18.562;2023-03-01T07:32:18;101513.84;;;0.74;100.00
57024;BME280;42916;54.346;18.562;2023-03-01T07:34:45;101512.07;;;0.75;100.00
57024;BME280;42916;54.346;18.562;2023-03-01T07:37:12;101509.69;;;0.78;100.00
57024;BME280;42916;54.346;18.562;2023-03-01T07:39:40;101514.36;;;0.83;100.00
57024;BME280;42916;54.346;18.562;2023-03-01T07:42:07;101516.95;;;0.85;100.00
57024;BME280;42916;54.346;18.562;2023-03-01T07:44:34;101517.73;;;0.86;100.00
57024;BME280;42916;54.346;18.562;2023-03-01T07:47:03;101520.71;;;0.88;100.00
57024;BME280;42916;54.346;18.562;2023-03-01T07:49:30;101518.67;;;0.94;100.00
57024;BME280;42916;54.346;18.562;2023-03-01T07:51:57;101527.98;;;1.01;100.00
57024;BME280;42916;54.346;18.562;2023-03-01T07:54:24;101524.23;;;1.04;100.00
57024;BME280;42916;54.346;18.562;2023-03-01T07:56:52;101523.61;;;1.06;100.00
57024;BME280;42916;54.346;18.562;2023-03-01T07:59:23;101517.91;;;1.08;100.00
57024;BME280;42916;54.346;18.562;2023-03-01T08:01:58;101510.23;;;1.14;100.00
57024;BME280;42916;54.346;18.562;2023-03-01T08:04:25;101509.64;;;1.19;100.00
57024;BME280;42916;54.346;18.562;2023-03-01T08:06:54;101510.20;;;1.23;100.00
57024;BME280;42916;54.346;18.562;2023-03-01T08:09:24;101503.88;;;1.22;100.00
57024;BME280;42916;54.346;18.562;2023-03-01T08:12:05;101500.79;;;1.27;100.00
57024;BME280;42916;54.346;18.562;2023-03-01T08:14:32;101498.41;;;1.31;100.00
57024;BME280;42916;54.346;18.562;2023-03-01T08:17:00;101491.17;;;1.35;100.00
57024;BME280;42916;54.346;18.562;2023-03-01T08:19:29;101493.55;;;1.38;100.00
57024;BME280;42916;54.346;18.562;2023-03-01T08:21:56;101489.27;;;1.41;100.00
57024;BME280;42916;54.346;18.562;2023-03-01T08:24:24;101494.49;;;1.47;100.00
57024;BME280;42916;54.346;18.562;2023-03-01T08:26:51;101503.41;;;1.53;100.00
57024;BME280;42916;54.346;18.562;2023-03-01T08:29:19;101504.44;;;1.56;100.00
57024;BME280;42916;54.346;18.562;2023-03-01T08:31:46;101500.39;;;1.59;100.00
57024;BME280;42916;54.346;18.562;2023-03-01T08:34:16;101512.95;;;1.60;100.00
57024;BME280;42916;54.346;18.562;2023-03-01T08:36:45;101505.95;;;1.62;100.00
57024;BME280;42916;54.346;18.562;2023-03-01T08:39:14;101510.13;;;1.66;100.00
57024;BME280;42916;54.346;18.562;2023-03-01T08:41:41;101516.94;;;1.66;100.00
57024;BME280;42916;54.346;18.562;2023-03-01T08:44:09;101511.34;;;1.66;100.00
57024;BME280;42916;54.346;18.562;2023-03-01T08:46:39;101503.56;;;1.71;100.00
57024;BME280;42916;54.346;18.562;2023-03-01T08:49:09;101499.36;;;1.76;100.00
57024;BME280;42916;54.346;18.562;2023-03-01T08:51:37;101500.66;;;1.81;100.00
57024;BME280;42916;54.346;18.562;2023-03-01T08:54:06;101498.80;;;1.83;100.00
57024;BME280;42916;54.346;18.562;2023-03-01T08:56:34;101495.77;;;1.83;100.00
57024;BME280;42916;54.346;18.562;2023-03-01T08:59:01;101494.58;;;1.85;100.00
57024;BME280;42916;54.346;18.562;2023-03-01T09:01:28;101490.34;;;1.90;100.00
57024;BME280;42916;54.346;18.562;2023-03-01T09:03:55;101495.29;;;1.99;100.00
57024;BME280;42916;54.346;18.562;2023-03-01T09:06:23;101496.23;;;2.06;100.00
57024;BME280;42916;54.346;18.562;2023-03-01T09:08:50;101490.98;;;2.15;100.00
57024;BME280;42916;54.346;18.562;2023-03-01T09:11:19;101501.15;;;2.24;100.00
57024;BME280;42916;54.346;18.562;2023-03-01T09:13:48;101498.54;;;2.34;100.00
57024;BME280;42916;54.346;18.562;2023-03-01T09:16:17;101506.25;;;2.44;100.00
57024;BME280;42916;54.346;18.562;2023-03-01T09:18:44;101507.50;;;2.55;100.00
57024;BME280;42916;54.346;18.562;2023-03-01T09:21:14;101508.25;;;2.66;100.00
57024;BME280;42916;54.346;18.562;2023-03-01T09:23:44;101505.56;;;2.76;100.00
57024;BME280;42916;54.346;18.562;2023-03-01T09:26:12;101503.08;;;2.80;100.00
57024;BME280;42916;54.346;18.562;2023-03-01T09:28:39;101503.42;;;2.85;100.00
57024;BME280;42916;54.346;18.562;2023-03-01T09:31:08;101506.25;;;2.93;100.00
57024;BME280;42916;54.346;18.562;2023-03-01T09:33:39;101508.92;;;2.98;100.00
57024;BME280;42916;54.346;18.562;2023-03-01T09:36:09;101508.69;;;2.96;100.00
57024;BME280;42916;54.346;18.562;2023-03-01T09:38:37;101511.08;;;3.02;100.00
57024;BME280;42916;54.346;18.562;2023-03-01T09:41:25;101509.05;;;3.01;100.00
57024;BME280;42916;54.346;18.562;2023-03-01T09:46:53;101501.41;;;3.04;100.00
57024;BME280;42916;54.346;18.562;2023-03-01T09:49:23;101500.45;;;3.03;99.97
57024;BME280;42916;54.346;18.562;2023-03-01T09:54:26;101496.26;;;3.02;99.45
57024;BME280;42916;54.346;18.562;2023-03-01T09:57:25;101498.67;;;3.01;99.79
57024;BME280;42916;54.346;18.562;2023-03-01T10:02:39;101495.20;;;3.17;100.00
57024;BME280;42916;54.346;18.562;2023-03-01T10:07:51;101506.53;;;3.26;99.73
57024;BME280;42916;54.346;18.562;2023-03-01T10:10:43;101513.03;;;3.24;99.46
57024;BME280;42916;54.346;18.562;2023-03-01T10:15:48;101515.97;;;3.24;98.63
57024;BME280;42916;54.346;18.562;2023-03-01T10:18:19;101516.41;;;3.25;98.56
57024;BME280;42916;54.346;18.562;2023-03-01T10:23:17;101504.38;;;3.35;99.15
57024;BME280;42916;54.346;18.562;2023-03-01T10:26:07;101509.02;;;3.43;99.05
57024;BME280;42916;54.346;18.562;2023-03-01T10:28:44;101510.77;;;3.47;98.22
57024;BME280;42916;54.346;18.562;2023-03-01T10:31:20;101504.52;;;3.51;98.26
57024;BME280;42916;54.346;18.562;2023-03-01T10:33:51;101502.23;;;3.58;98.30
57024;BME280;42916;54.346;18.562;2023-03-01T10:36:24;101500.80;;;3.64;97.96
57024;BME280;42916;54.346;18.562;2023-03-01T10:38:57;101502.60;;;3.67;96.92
57024;BME280;42916;54.346;18.562;2023-03-01T10:41:26;101506.11;;;3.66;97.42
57024;BME280;42916;54.346;18.562;2023-03-01T10:43:58;101506.38;;;3.69;97.31
57024;BME280;42916;54.346;18.562;2023-03-01T10:46:35;101504.88;;;3.71;97.17
57024;BME280;42916;54.346;18.562;2023-03-01T10:49:15;101508.89;;;3.67;95.79
57024;BME280;42916;54.346;18.562;2023-03-01T10:51:45;101505.15;;;3.67;96.17
57024;BME280;42916;54.346;18.562;2023-03-01T10:54:28;101510.74;;;3.67;95.21
57024;BME280;42916;54.346;18.562;2023-03-01T10:57:00;101502.33;;;3.64;95.45
57024;BME280;42916;54.346;18.562;2023-03-01T11:02:15;101499.58;;;3.76;95.88
57024;BME280;42916;54.346;18.562;2023-03-01T11:07:56;101497.40;;;3.83;94.34
57024;BME280;42916;54.346;18.562;2023-03-01T11:10:29;101498.34;;;3.84;94.75
57024;BME280;42916;54.346;18.562;2023-03-01T11:13:29;101501.09;;;3.91;95.47
57024;BME280;42916;54.346;18.562;2023-03-01T11:15:59;101501.32;;;3.98;94.94
57024;BME280;42916;54.346;18.562;2023-03-01T11:18:29;101499.27;;;3.98;94.71
57024;BME280;42916;54.346;18.562;2023-03-01T11:20:58;101499.60;;;4.04;94.49
57024;BME280;42916;54.346;18.562;2023-03-01T11:23:28;101498.13;;;4.09;94.21
57024;BME280;42916;54.346;18.562;2023-03-01T11:26:01;101495.04;;;4.12;93.16
57024;BME280;42916;54.346;18.562;2023-03-01T11:28:30;101489.86;;;4.11;93.31
57024;BME280;42916;54.346;18.562;2023-03-01T11:31:11;101485.78;;;4.18;94.34
57024;BME280;42916;54.346;18.562;2023-03-01T11:36:30;101483.88;;;4.41;92.99
57024;BME280;42916;54.346;18.562;2023-03-01T11:39:09;101477.91;;;4.44;92.35
57024;BME280;42916;54.346;18.562;2023-03-01T11:41:40;101474.70;;;4.49;92.18
57024;BME280;42916;54.346;18.562;2023-03-01T11:49:54;101466.80;;;4.63;91.80
57024;BME280;42916;54.346;18.562;2023-03-01T11:52:40;101472.80;;;4.74;91.23
57024;BME280;42916;54.346;18.562;2023-03-01T11:58:04;101470.52;;;4.80;90.13
57024;BME280;42916;54.346;18.562;2023-03-01T12:07:15;101473.36;;;4.87;88.83
57024;BME280;42916;54.346;18.562;2023-03-01T12:10:21;101473.40;;;4.96;89.47
57024;BME280;42916;54.346;18.562;2023-03-01T12:13:11;101474.80;;;4.99;88.51
57024;BME280;42916;54.346;18.562;2023-03-01T12:23:39;101480.86;;;5.39;88.24
57024;BME280;42916;54.346;18.562;2023-03-01T12:31:44;101473.68;;;5.64;86.99
57024;BME280;42916;54.346;18.562;2023-03-01T12:34:31;101473.85;;;5.89;86.21
57024;BME280;42916;54.346;18.562;2023-03-01T12:42:48;101460.11;;;6.21;84.00
57024;BME280;42916;54.346;18.562;2023-03-01T12:48:30;101459.19;;;6.23;84.44
57024;BME280;42916;54.346;18.562;2023-03-01T12:51:13;101456.37;;;6.54;84.55
57024;BME280;42916;54.346;18.562;2023-03-01T12:53:45;101456.79;;;6.65;82.68
57024;BME280;42916;54.346;18.562;2023-03-01T12:56:29;101448.27;;;6.69;82.47
57024;BME280;42916;54.346;18.562;2023-03-01T12:59:17;101446.91;;;6.71;81.51
57024;BME280;42916;54.346;18.562;2023-03-01T13:17:52;101433.26;;;7.37;80.87
57024;BME280;42916;54.346;18.562;2023-03-01T13:20:20;101430.17;;;7.74;80.20
57024;BME280;42916;54.346;18.562;2023-03-01T13:22:47;101431.66;;;7.83;78.97
57024;BME280;42916;54.346;18.562;2023-03-01T13:25:27;101431.20;;;8.02;77.90
57024;BME280;42916;54.346;18.562;2023-03-01T13:28:37;101433.83;;;8.04;76.81
57024;BME280;42916;54.346;18.562;2023-03-01T13:31:09;101438.05;;;8.00;74.60
57024;BME280;42916;54.346;18.562;2023-03-01T13:46:47;101427.41;;;7.99;71.14
57024;BME280;42916;54.346;18.562;2023-03-01T13:49:16;101428.87;;;8.01;72.35
57024;BME280;42916;54.346;18.562;2023-03-01T13:51:48;101429.56;;;8.05;72.64
57024;BME280;42916;54.346;18.562;2023-03-01T13:54:23;101428.98;;;8.28;73.92
57024;BME280;42916;54.346;18.562;2023-03-01T13:56:51;101425.70;;;8.66;74.03
57024;BME280;42916;54.346;18.562;2023-03-01T13:59:21;101429.56;;;9.08;74.76
57024;BME280;42916;54.346;18.562;2023-03-01T14:01:53;101429.25;;;9.38;73.12
57024;BME280;42916;54.346;18.562;2023-03-01T14:04:27;101424.84;;;9.45;71.07
57024;BME280;42916;54.346;18.562;2023-03-01T14:07:17;101423.47;;;9.54;70.85
57024;BME280;42916;54.346;18.562;2023-03-01T14:09:47;101428.16;;;9.52;68.82
57024;BME280;42916;54.346;18.562;2023-03-01T14:15:23;101423.93;;;9.83;69.64
57024;BME280;42916;54.346;18.562;2023-03-01T14:18:18;101422.85;;;9.91;68.95
57024;BME280;42916;54.346;18.562;2023-03-01T14:20:48;101426.35;;;9.88;66.26
57024;BME280;42916;54.346;18.562;2023-03-01T14:23:21;101420.14;;;9.58;65.41
57024;BME280;42916;54.346;18.562;2023-03-01T14:25:52;101417.77;;;9.51;66.34
57024;BME280;42916;54.346;18.562;2023-03-01T14:28:23;101414.11;;;9.58;66.89
57024;BME280;42916;54.346;18.562;2023-03-01T14:30:53;101411.16;;;9.64;66.61
57024;BME280;42916;54.346;18.562;2023-03-01T14:33:34;101407.06;;;9.60;66.82
57024;BME280;42916;54.346;18.562;2023-03-01T14:36:08;101409.09;;;9.50;66.67
57024;BME280;42916;54.346;18.562;2023-03-01T14:38:40;101407.05;;;9.14;66.10
57024;BME280;42916;54.346;18.562;2023-03-01T14:41:14;101406.77;;;8.63;65.63
57024;BME280;42916;54.346;18.562;2023-03-01T14:43:47;101405.60;;;8.23;66.91
57024;BME280;42916;54.346;18.562;2023-03-01T14:48:49;101398.95;;;7.62;68.39